Ana Sayfa
METAR-TAF:

METAR-TAF

Havaalanları :

Matamoros, Meksika

Enlem: 25-46N, Boylam: 097-32W, yükseklik: 8 m

Güncel hava durumu gözlemi

Rapor saat 01:42 UTC de 6 saat ve 21 dakika önce yapıldı.
Sakin rüzgar
Sıcaklık 17°C
Nem 77%
Basınç 1013 hPa
Görüş mesafesi: 11.3 km
Açık gökyüzü

METAR: MMMA 140142Z 00000KT 7SM SKC 17/13 A2990 RMK HZY FU NE

Saat: 02:03 (08:03 UTC)

Tahmin

Rapor saat 05:25 UTC de 2 saat ve 38 dakika önce yapıldı.
Ayın 14'si saat 06 UTC'den ayın 15'si saat 06 UTC'ye kadar geçerli Tahmin
Rüzgar kuzeydan kt
Görüş mesafesi: 10 km
Açık gökyüzü
Ayın 14'si saat 1800 UTC'den
Rüzgar güney/güneybatıdan 10 kt
Görüş mesafesi: 10 km
Açık gökyüzü
Dönüşüyor
ayın 15'si saat 02 UTC'den ayın 15'si saat 04 UTC'ye kadar
Rüzgar güneydoğudan 8 kt

TAF: MMMA 140525Z 1406/1506 00000KT P6SM SKC FM141800 20010KT P6SM SKC BECMG 1502/1504 14008KT

4.000'den fazla havaalanı için hava durumu gözlemleri ve tahminleri (METAR ve TAF raporları).

Kullanılabilir istasyonlar harita üzerinde sarı ve kırmızı noktalarla gösterilir.

İstasyonun adını görmek için fareyi noktanın üzerinde gezdirin.

Sonrasında hava gözlem ve tahminlerini görmek için tıklayın.

Haritayı değiştirmek için: yaklaştırmak için siyah artı işaretli yeşil düğmeye ve uzaklaştırmak için de eksi işaretli düğmeye hızla tıklayın; bitişik haritalar için yeşil okları kullanın.


METAR-TAF: